FBSK/GBE METAR and TAF weather

Enter ICAO airport designator
Station Type Date Time Source
FBSK METAR 2019/08/25 02:00 UTC NOAA

FBSK 250200Z 12005KT CAVOK 11/M04 Q1026 NOSIG


Station Type Date Time Source
FBSK Decoded METAR 2019/08/25 02:00 UTC NOAA

Station name not available
Aug 24, 2019 - 10:00 PM EDT / 2019.08.25 0200 UTC
Wind: from the ESE (120 degrees) at 6 MPH (5 KT):0
Visibility: greater than 7 mile(s):0
Temperature: 51 F (11 C)
Dew Point: 24 F (-4 C)
Relative Humidity: 34%
Pressure (altimeter): 30.30 in. Hg (1026 hPa)
ob: FBSK 250200Z 12005KT CAVOK 11/M04 Q1026 NOSIG
cycle: 2

Station Type Date Time Source
FBSK TAF 2019/08/24 18:18 UTC NOAA

TAF TAF FBSK 241500Z 2418/2524 27005KT CAVOK

Example: see airport list